sensor_id;sensor_type;location;lat;lon;timestamp;P1;durP1;ratioP1;P2;durP2;ratioP2
7773;SDS011;3931;42.260;23.116;2023-07-20T00:01:16;13.80;;;2.70;;
7773;SDS011;3931;42.260;23.116;2023-07-20T00:04:41;13.83;;;2.73;;
7773;SDS011;3931;42.260;23.116;2023-07-20T00:08:06;9.17;;;2.50;;
7773;SDS011;3931;42.260;23.116;2023-07-20T00:11:30;10.07;;;2.20;;
7773;SDS011;3931;42.260;23.116;2023-07-20T00:14:55;7.17;;;2.10;;
7773;SDS011;3931;42.260;23.116;2023-07-20T00:18:20;10.07;;;3.23;;
7773;SDS011;3931;42.260;23.116;2023-07-20T00:21:44;10.47;;;2.60;;
7773;SDS011;3931;42.260;23.116;2023-07-20T00:25:10;6.30;;;2.60;;
7773;SDS011;3931;42.260;23.116;2023-07-20T00:28:34;16.60;;;2.60;;
7773;SDS011;3931;42.260;23.116;2023-07-20T00:31:59;12.80;;;2.57;;
7773;SDS011;3931;42.260;23.116;2023-07-20T00:35:23;13.47;;;2.90;;
7773;SDS011;3931;42.260;23.116;2023-07-20T00:38:48;10.43;;;2.90;;
7773;SDS011;3931;42.260;23.116;2023-07-20T00:42:13;20.43;;;2.93;;
7773;SDS011;3931;42.260;23.116;2023-07-20T00:45:38;14.43;;;2.60;;
7773;SDS011;3931;42.260;23.116;2023-07-20T00:49:02;12.60;;;3.10;;
7773;SDS011;3931;42.260;23.116;2023-07-20T00:52:28;10.63;;;2.23;;
7773;SDS011;3931;42.260;23.116;2023-07-20T00:55:53;13.60;;;2.50;;
7773;SDS011;3931;42.260;23.116;2023-07-20T00:59:19;15.23;;;2.90;;
7773;SDS011;3931;42.260;23.116;2023-07-20T01:02:44;11.90;;;2.70;;
7773;SDS011;3931;42.260;23.116;2023-07-20T01:06:10;14.37;;;2.50;;
7773;SDS011;3931;42.260;23.116;2023-07-20T01:09:42;15.50;;;3.20;;
7773;SDS011;3931;42.260;23.116;2023-07-20T01:13:09;16.20;;;3.17;;
7773;SDS011;3931;42.260;23.116;2023-07-20T01:16:35;10.57;;;2.50;;
7773;SDS011;3931;42.260;23.116;2023-07-20T01:20:00;13.87;;;2.67;;
7773;SDS011;3931;42.260;23.116;2023-07-20T01:23:33;14.67;;;2.87;;
7773;SDS011;3931;42.260;23.116;2023-07-20T01:31:14;13.47;;;2.60;;
7773;SDS011;3931;42.260;23.116;2023-07-20T01:34:40;4.77;;;2.57;;
7773;SDS011;3931;42.260;23.116;2023-07-20T01:38:08;35.37;;;3.30;;
7773;SDS011;3931;42.260;23.116;2023-07-20T01:41:33;12.30;;;2.90;;
7773;SDS011;3931;42.260;23.116;2023-07-20T01:44:58;12.43;;;3.30;;
7773;SDS011;3931;42.260;23.116;2023-07-20T01:48:23;10.53;;;2.67;;
7773;SDS011;3931;42.260;23.116;2023-07-20T01:51:48;15.17;;;3.23;;
7773;SDS011;3931;42.260;23.116;2023-07-20T01:55:12;13.07;;;2.90;;
7773;SDS011;3931;42.260;23.116;2023-07-20T01:58:37;10.20;;;2.40;;
7773;SDS011;3931;42.260;23.116;2023-07-20T02:02:02;15.37;;;3.20;;
7773;SDS011;3931;42.260;23.116;2023-07-20T02:05:27;8.00;;;3.03;;
7773;SDS011;3931;42.260;23.116;2023-07-20T02:08:52;13.40;;;3.23;;
7773;SDS011;3931;42.260;23.116;2023-07-20T02:12:16;9.87;;;3.07;;
7773;SDS011;3931;42.260;23.116;2023-07-20T02:15:41;9.80;;;3.20;;
7773;SDS011;3931;42.260;23.116;2023-07-20T02:19:06;5.60;;;2.80;;
7773;SDS011;3931;42.260;23.116;2023-07-20T02:22:34;21.50;;;3.63;;
7773;SDS011;3931;42.260;23.116;2023-07-20T02:25:59;10.93;;;3.60;;
7773;SDS011;3931;42.260;23.116;2023-07-20T02:29:23;8.93;;;3.87;;
7773;SDS011;3931;42.260;23.116;2023-07-20T02:32:48;10.80;;;3.13;;
7773;SDS011;3931;42.260;23.116;2023-07-20T02:36:13;13.23;;;3.57;;
7773;SDS011;3931;42.260;23.116;2023-07-20T02:39:38;8.40;;;3.70;;
7773;SDS011;3931;42.260;23.116;2023-07-20T02:43:03;12.43;;;3.63;;
7773;SDS011;3931;42.260;23.116;2023-07-20T02:46:28;14.23;;;4.27;;
7773;SDS011;3931;42.260;23.116;2023-07-20T02:49:54;10.60;;;3.73;;
7773;SDS011;3931;42.260;23.116;2023-07-20T02:53:19;10.50;;;3.13;;
7773;SDS011;3931;42.260;23.116;2023-07-20T02:56:44;10.70;;;3.50;;
7773;SDS011;3931;42.260;23.116;2023-07-20T03:00:09;6.07;;;3.40;;
7773;SDS011;3931;42.260;23.116;2023-07-20T03:03:34;8.50;;;3.83;;
7773;SDS011;3931;42.260;23.116;2023-07-20T03:06:59;15.23;;;3.33;;
7773;SDS011;3931;42.260;23.116;2023-07-20T03:10:28;11.37;;;3.90;;
7773;SDS011;3931;42.260;23.116;2023-07-20T03:13:53;6.77;;;3.50;;
7773;SDS011;3931;42.260;23.116;2023-07-20T03:17:19;11.60;;;3.20;;
7773;SDS011;3931;42.260;23.116;2023-07-20T03:20:43;8.57;;;3.40;;
7773;SDS011;3931;42.260;23.116;2023-07-20T03:24:08;15.73;;;4.57;;
7773;SDS011;3931;42.260;23.116;2023-07-20T03:27:33;18.10;;;3.37;;
7773;SDS011;3931;42.260;23.116;2023-07-20T03:30:58;6.50;;;3.37;;
7773;SDS011;3931;42.260;23.116;2023-07-20T03:34:24;8.17;;;2.50;;
7773;SDS011;3931;42.260;23.116;2023-07-20T03:37:48;16.80;;;3.50;;
7773;SDS011;3931;42.260;23.116;2023-07-20T03:41:13;16.07;;;3.60;;
7773;SDS011;3931;42.260;23.116;2023-07-20T03:44:38;16.13;;;3.33;;
7773;SDS011;3931;42.260;23.116;2023-07-20T03:48:03;7.27;;;3.40;;
7773;SDS011;3931;42.260;23.116;2023-07-20T03:51:28;6.70;;;3.73;;
7773;SDS011;3931;42.260;23.116;2023-07-20T03:54:53;20.60;;;3.90;;
7773;SDS011;3931;42.260;23.116;2023-07-20T03:58:18;9.90;;;3.60;;
7773;SDS011;3931;42.260;23.116;2023-07-20T04:01:42;11.43;;;3.77;;
7773;SDS011;3931;42.260;23.116;2023-07-20T04:05:08;10.80;;;2.90;;
7773;SDS011;3931;42.260;23.116;2023-07-20T04:08:33;12.73;;;2.87;;
7773;SDS011;3931;42.260;23.116;2023-07-20T04:11:57;12.53;;;3.90;;
7773;SDS011;3931;42.260;23.116;2023-07-20T04:15:22;24.97;;;4.20;;
7773;SDS011;3931;42.260;23.116;2023-07-20T04:18:46;14.47;;;3.70;;
7773;SDS011;3931;42.260;23.116;2023-07-20T04:22:13;8.70;;;3.93;;
7773;SDS011;3931;42.260;23.116;2023-07-20T04:25:39;24.07;;;4.90;;
7773;SDS011;3931;42.260;23.116;2023-07-20T04:29:03;17.00;;;3.70;;
7773;SDS011;3931;42.260;23.116;2023-07-20T04:32:28;14.53;;;4.03;;
7773;SDS011;3931;42.260;23.116;2023-07-20T04:35:54;13.47;;;3.30;;
7773;SDS011;3931;42.260;23.116;2023-07-20T04:39:19;14.73;;;3.27;;
7773;SDS011;3931;42.260;23.116;2023-07-20T04:42:44;13.60;;;4.20;;
7773;SDS011;3931;42.260;23.116;2023-07-20T04:46:09;17.33;;;5.03;;
7773;SDS011;3931;42.260;23.116;2023-07-20T04:49:34;22.53;;;4.40;;
7773;SDS011;3931;42.260;23.116;2023-07-20T04:52:58;11.93;;;4.50;;
7773;SDS011;3931;42.260;23.116;2023-07-20T04:56:23;13.30;;;4.00;;
7773;SDS011;3931;42.260;23.116;2023-07-20T04:59:49;15.67;;;4.00;;
7773;SDS011;3931;42.260;23.116;2023-07-20T05:03:13;27.23;;;6.40;;
7773;SDS011;3931;42.260;23.116;2023-07-20T05:06:38;15.37;;;4.00;;
7773;SDS011;3931;42.260;23.116;2023-07-20T05:10:03;14.87;;;4.37;;
7773;SDS011;3931;42.260;23.116;2023-07-20T05:13:28;16.13;;;4.30;;
7773;SDS011;3931;42.260;23.116;2023-07-20T05:16:53;14.57;;;4.90;;
7773;SDS011;3931;42.260;23.116;2023-07-20T05:20:17;16.13;;;4.97;;
7773;SDS011;3931;42.260;23.116;2023-07-20T05:23:42;22.03;;;3.67;;
7773;SDS011;3931;42.260;23.116;2023-07-20T05:27:06;14.70;;;3.47;;
7773;SDS011;3931;42.260;23.116;2023-07-20T05:30:33;16.53;;;3.93;;
7773;SDS011;3931;42.260;23.116;2023-07-20T05:33:58;12.57;;;4.30;;
7773;SDS011;3931;42.260;23.116;2023-07-20T05:37:22;16.73;;;4.00;;
7773;SDS011;3931;42.260;23.116;2023-07-20T05:40:47;15.10;;;3.90;;
7773;SDS011;3931;42.260;23.116;2023-07-20T05:44:12;23.40;;;3.63;;
7773;SDS011;3931;42.260;23.116;2023-07-20T05:47:37;17.17;;;3.67;;
7773;SDS011;3931;42.260;23.116;2023-07-20T05:51:01;13.30;;;4.03;;
7773;SDS011;3931;42.260;23.116;2023-07-20T05:54:26;9.60;;;3.43;;
7773;SDS011;3931;42.260;23.116;2023-07-20T05:57:51;23.93;;;5.23;;
7773;SDS011;3931;42.260;23.116;2023-07-20T06:01:15;13.33;;;3.90;;
7773;SDS011;3931;42.260;23.116;2023-07-20T06:04:41;11.90;;;4.00;;
7773;SDS011;3931;42.260;23.116;2023-07-20T06:08:05;14.43;;;4.27;;
7773;SDS011;3931;42.260;23.116;2023-07-20T06:11:32;17.43;;;4.43;;
7773;SDS011;3931;42.260;23.116;2023-07-20T06:15:01;23.27;;;4.97;;
7773;SDS011;3931;42.260;23.116;2023-07-20T06:18:26;23.23;;;6.33;;
7773;SDS011;3931;42.260;23.116;2023-07-20T06:21:52;29.50;;;5.70;;
7773;SDS011;3931;42.260;23.116;2023-07-20T06:25:16;13.43;;;4.60;;
7773;SDS011;3931;42.260;23.116;2023-07-20T06:28:41;15.40;;;5.00;;
7773;SDS011;3931;42.260;23.116;2023-07-20T06:32:06;12.23;;;5.17;;
7773;SDS011;3931;42.260;23.116;2023-07-20T06:35:31;14.73;;;5.00;;
7773;SDS011;3931;42.260;23.116;2023-07-20T06:38:56;15.60;;;4.27;;
7773;SDS011;3931;42.260;23.116;2023-07-20T06:42:21;23.33;;;6.10;;
7773;SDS011;3931;42.260;23.116;2023-07-20T06:45:50;25.07;;;5.77;;
7773;SDS011;3931;42.260;23.116;2023-07-20T06:49:23;16.37;;;5.77;;
7773;SDS011;3931;42.260;23.116;2023-07-20T06:52:48;30.53;;;6.00;;
7773;SDS011;3931;42.260;23.116;2023-07-20T06:56:13;28.48;;;5.18;;
7773;SDS011;3931;42.260;23.116;2023-07-20T06:59:38;24.42;;;4.78;;
7773;SDS011;3931;42.260;23.116;2023-07-20T07:03:02;21.48;;;6.13;;
7773;SDS011;3931;42.260;23.116;2023-07-20T07:06:27;16.85;;;5.15;;
7773;SDS011;3931;42.260;23.116;2023-07-20T07:09:51;11.50;;;5.00;;
7773;SDS011;3931;42.260;23.116;2023-07-20T07:13:17;19.67;;;5.40;;
7773;SDS011;3931;42.260;23.116;2023-07-20T07:16:41;24.48;;;5.25;;
7773;SDS011;3931;42.260;23.116;2023-07-20T07:20:07;9.77;;;3.92;;
7773;SDS011;3931;42.260;23.116;2023-07-20T07:23:32;24.85;;;5.10;;
7773;SDS011;3931;42.260;23.116;2023-07-20T07:26:58;15.35;;;5.18;;
7773;SDS011;3931;42.260;23.116;2023-07-20T07:30:24;16.88;;;4.65;;
7773;SDS011;3931;42.260;23.116;2023-07-20T07:33:50;13.00;;;4.78;;
7773;SDS011;3931;42.260;23.116;2023-07-20T07:37:14;16.30;;;5.00;;
7773;SDS011;3931;42.260;23.116;2023-07-20T07:40:39;22.63;;;5.18;;
7773;SDS011;3931;42.260;23.116;2023-07-20T07:44:04;17.95;;;5.80;;
7773;SDS011;3931;42.260;23.116;2023-07-20T07:47:29;26.15;;;4.95;;
7773;SDS011;3931;42.260;23.116;2023-07-20T07:50:54;18.25;;;4.40;;
7773;SDS011;3931;42.260;23.116;2023-07-20T07:54:18;14.60;;;4.45;;
7773;SDS011;3931;42.260;23.116;2023-07-20T07:57:43;16.45;;;4.80;;
7773;SDS011;3931;42.260;23.116;2023-07-20T08:01:07;16.80;;;6.43;;
7773;SDS011;3931;42.260;23.116;2023-07-20T08:04:33;16.85;;;5.28;;
7773;SDS011;3931;42.260;23.116;2023-07-20T08:08:00;10.98;;;5.00;;
7773;SDS011;3931;42.260;23.116;2023-07-20T08:11:24;16.17;;;5.82;;
7773;SDS011;3931;42.260;23.116;2023-07-20T08:14:49;12.00;;;5.18;;
7773;SDS011;3931;42.260;23.116;2023-07-20T08:18:14;8.60;;;4.03;;
7773;SDS011;3931;42.260;23.116;2023-07-20T08:21:40;27.75;;;5.60;;
7773;SDS011;3931;42.260;23.116;2023-07-20T08:25:05;16.67;;;4.70;;
7773;SDS011;3931;42.260;23.116;2023-07-20T08:28:29;18.70;;;6.13;;
7773;SDS011;3931;42.260;23.116;2023-07-20T08:31:54;31.42;;;5.25;;
7773;SDS011;3931;42.260;23.116;2023-07-20T08:35:18;19.05;;;5.03;;
7773;SDS011;3931;42.260;23.116;2023-07-20T08:38:44;20.73;;;5.63;;
7773;SDS011;3931;42.260;23.116;2023-07-20T08:42:08;14.82;;;5.50;;
7773;SDS011;3931;42.260;23.116;2023-07-20T08:45:34;14.35;;;5.13;;
7773;SDS011;3931;42.260;23.116;2023-07-20T08:48:58;15.75;;;5.63;;
7773;SDS011;3931;42.260;23.116;2023-07-20T08:52:24;17.75;;;6.15;;
7773;SDS011;3931;42.260;23.116;2023-07-20T08:55:51;11.57;;;4.97;;
7773;SDS011;3931;42.260;23.116;2023-07-20T08:59:16;17.02;;;6.43;;
7773;SDS011;3931;42.260;23.116;2023-07-20T09:02:42;12.63;;;5.60;;
7773;SDS011;3931;42.260;23.116;2023-07-20T09:06:10;19.30;;;6.13;;
7773;SDS011;3931;42.260;23.116;2023-07-20T09:09:39;19.08;;;6.35;;
7773;SDS011;3931;42.260;23.116;2023-07-20T09:13:04;31.38;;;7.15;;
7773;SDS011;3931;42.260;23.116;2023-07-20T09:16:30;27.65;;;7.03;;
7773;SDS011;3931;42.260;23.116;2023-07-20T09:19:54;19.65;;;6.25;;
7773;SDS011;3931;42.260;23.116;2023-07-20T09:23:19;19.52;;;6.75;;
7773;SDS011;3931;42.260;23.116;2023-07-20T09:26:44;25.90;;;6.75;;
7773;SDS011;3931;42.260;23.116;2023-07-20T09:30:11;29.60;;;6.68;;
7773;SDS011;3931;42.260;23.116;2023-07-20T09:33:41;16.80;;;6.82;;
7773;SDS011;3931;42.260;23.116;2023-07-20T09:37:05;13.68;;;5.22;;
7773;SDS011;3931;42.260;23.116;2023-07-20T09:40:30;11.23;;;5.30;;
7773;SDS011;3931;42.260;23.116;2023-07-20T09:43:55;21.95;;;5.28;;
7773;SDS011;3931;42.260;23.116;2023-07-20T09:47:24;17.98;;;5.00;;
7773;SDS011;3931;42.260;23.116;2023-07-20T09:50:50;14.50;;;5.07;;
7773;SDS011;3931;42.260;23.116;2023-07-20T09:54:14;12.43;;;7.20;;
7773;SDS011;3931;42.260;23.116;2023-07-20T09:57:39;11.38;;;3.85;;
7773;SDS011;3931;42.260;23.116;2023-07-20T10:01:04;13.65;;;4.28;;
7773;SDS011;3931;42.260;23.116;2023-07-20T10:04:35;7.82;;;3.22;;
7773;SDS011;3931;42.260;23.116;2023-07-20T10:08:02;10.00;;;4.05;;
7773;SDS011;3931;42.260;23.116;2023-07-20T10:11:29;12.88;;;3.90;;
7773;SDS011;3931;42.260;23.116;2023-07-20T10:14:57;12.32;;;4.40;;
7773;SDS011;3931;42.260;23.116;2023-07-20T10:18:28;8.98;;;3.53;;
7773;SDS011;3931;42.260;23.116;2023-07-20T10:22:00;11.77;;;4.15;;
7773;SDS011;3931;42.260;23.116;2023-07-20T10:25:27;13.38;;;4.40;;
7773;SDS011;3931;42.260;23.116;2023-07-20T10:28:52;13.70;;;4.00;;
7773;SDS011;3931;42.260;23.116;2023-07-20T10:32:18;9.48;;;4.38;;
7773;SDS011;3931;42.260;23.116;2023-07-20T10:35:51;12.40;;;3.70;;
7773;SDS011;3931;42.260;23.116;2023-07-20T10:39:24;13.57;;;3.85;;
7773;SDS011;3931;42.260;23.116;2023-07-20T10:42:56;12.98;;;3.70;;
7773;SDS011;3931;42.260;23.116;2023-07-20T10:46:34;9.93;;;4.47;;
7773;SDS011;3931;42.260;23.116;2023-07-20T10:50:10;16.67;;;4.38;;
7773;SDS011;3931;42.260;23.116;2023-07-20T10:53:38;13.82;;;3.83;;
7773;SDS011;3931;42.260;23.116;2023-07-20T10:57:23;10.32;;;3.60;;
7773;SDS011;3931;42.260;23.116;2023-07-20T11:00:54;9.48;;;3.50;;
7773;SDS011;3931;42.260;23.116;2023-07-20T11:04:21;13.18;;;4.25;;
7773;SDS011;3931;42.260;23.116;2023-07-20T11:08:03;16.90;;;3.90;;
7773;SDS011;3931;42.260;23.116;2023-07-20T11:11:34;9.88;;;3.60;;
7773;SDS011;3931;42.260;23.116;2023-07-20T11:14:59;12.07;;;3.22;;
7773;SDS011;3931;42.260;23.116;2023-07-20T11:18:28;12.10;;;3.55;;
7773;SDS011;3931;42.260;23.116;2023-07-20T11:21:53;10.10;;;4.07;;
7773;SDS011;3931;42.260;23.116;2023-07-20T11:25:19;9.80;;;3.80;;
7773;SDS011;3931;42.260;23.116;2023-07-20T11:28:48;8.30;;;3.97;;
7773;SDS011;3931;42.260;23.116;2023-07-20T11:32:12;7.63;;;3.53;;
7773;SDS011;3931;42.260;23.116;2023-07-20T11:35:44;9.55;;;3.40;;
7773;SDS011;3931;42.260;23.116;2023-07-20T11:39:10;10.52;;;3.92;;
7773;SDS011;3931;42.260;23.116;2023-07-20T11:42:35;7.18;;;3.47;;
7773;SDS011;3931;42.260;23.116;2023-07-20T11:46:04;9.55;;;3.67;;
7773;SDS011;3931;42.260;23.116;2023-07-20T11:49:29;21.55;;;3.75;;
7773;SDS011;3931;42.260;23.116;2023-07-20T11:52:54;14.45;;;4.47;;
7773;SDS011;3931;42.260;23.116;2023-07-20T11:56:20;10.23;;;3.90;;
7773;SDS011;3931;42.260;23.116;2023-07-20T11:59:52;8.43;;;3.45;;
7773;SDS011;3931;42.260;23.116;2023-07-20T12:03:17;9.93;;;3.78;;
7773;SDS011;3931;42.260;23.116;2023-07-20T12:06:42;14.73;;;4.30;;
7773;SDS011;3931;42.260;23.116;2023-07-20T12:10:08;8.32;;;3.45;;
7773;SDS011;3931;42.260;23.116;2023-07-20T12:13:37;8.70;;;4.38;;
7773;SDS011;3931;42.260;23.116;2023-07-20T12:17:01;11.45;;;4.50;;
7773;SDS011;3931;42.260;23.116;2023-07-20T12:20:29;10.02;;;4.22;;
7773;SDS011;3931;42.260;23.116;2023-07-20T12:23:55;10.30;;;4.32;;
7773;SDS011;3931;42.260;23.116;2023-07-20T12:27:20;14.00;;;4.07;;
7773;SDS011;3931;42.260;23.116;2023-07-20T12:30:45;9.07;;;4.25;;
7773;SDS011;3931;42.260;23.116;2023-07-20T12:34:10;5.95;;;3.35;;
7773;SDS011;3931;42.260;23.116;2023-07-20T12:37:37;9.48;;;4.00;;
7773;SDS011;3931;42.260;23.116;2023-07-20T12:41:01;7.55;;;4.50;;
7773;SDS011;3931;42.260;23.116;2023-07-20T12:44:26;9.63;;;4.60;;
7773;SDS011;3931;42.260;23.116;2023-07-20T12:47:51;9.88;;;4.18;;
7773;SDS011;3931;42.260;23.116;2023-07-20T12:51:15;8.63;;;4.55;;
7773;SDS011;3931;42.260;23.116;2023-07-20T12:54:41;8.57;;;4.63;;
7773;SDS011;3931;42.260;23.116;2023-07-20T12:58:06;10.20;;;4.90;;
7773;SDS011;3931;42.260;23.116;2023-07-20T13:01:31;8.50;;;4.55;;
7773;SDS011;3931;42.260;23.116;2023-07-20T13:04:56;8.73;;;4.53;;
7773;SDS011;3931;42.260;23.116;2023-07-20T13:08:21;10.35;;;3.90;;
7773;SDS011;3931;42.260;23.116;2023-07-20T13:11:46;9.52;;;4.18;;
7773;SDS011;3931;42.260;23.116;2023-07-20T13:15:10;9.20;;;4.57;;
7773;SDS011;3931;42.260;23.116;2023-07-20T13:18:35;17.08;;;6.03;;
7773;SDS011;3931;42.260;23.116;2023-07-20T13:21:59;15.43;;;5.07;;
7773;SDS011;3931;42.260;23.116;2023-07-20T13:25:24;11.70;;;4.80;;
7773;SDS011;3931;42.260;23.116;2023-07-20T13:28:50;16.60;;;5.82;;
7773;SDS011;3931;42.260;23.116;2023-07-20T13:32:14;13.88;;;5.03;;
7773;SDS011;3931;42.260;23.116;2023-07-20T13:35:39;11.90;;;5.55;;
7773;SDS011;3931;42.260;23.116;2023-07-20T13:39:04;11.70;;;4.35;;
7773;SDS011;3931;42.260;23.116;2023-07-20T13:42:30;15.15;;;4.72;;
7773;SDS011;3931;42.260;23.116;2023-07-20T13:45:55;11.05;;;5.18;;
7773;SDS011;3931;42.260;23.116;2023-07-20T13:49:19;9.40;;;4.75;;
7773;SDS011;3931;42.260;23.116;2023-07-20T13:52:47;19.08;;;5.50;;
7773;SDS011;3931;42.260;23.116;2023-07-20T13:56:13;11.20;;;5.15;;
7773;SDS011;3931;42.260;23.116;2023-07-20T13:59:38;11.85;;;5.30;;
7773;SDS011;3931;42.260;23.116;2023-07-20T14:03:03;8.73;;;5.47;;
7773;SDS011;3931;42.260;23.116;2023-07-20T14:06:29;18.17;;;5.78;;
7773;SDS011;3931;42.260;23.116;2023-07-20T14:09:54;13.23;;;4.90;;
7773;SDS011;3931;42.260;23.116;2023-07-20T14:13:18;15.43;;;5.28;;
7773;SDS011;3931;42.260;23.116;2023-07-20T14:16:43;11.68;;;4.93;;
7773;SDS011;3931;42.260;23.116;2023-07-20T14:20:09;11.50;;;4.72;;
7773;SDS011;3931;42.260;23.116;2023-07-20T14:23:33;11.90;;;5.20;;
7773;SDS011;3931;42.260;23.116;2023-07-20T14:26:58;14.82;;;4.70;;
7773;SDS011;3931;42.260;23.116;2023-07-20T14:30:23;12.70;;;5.00;;
7773;SDS011;3931;42.260;23.116;2023-07-20T14:33:47;13.88;;;5.20;;
7773;SDS011;3931;42.260;23.116;2023-07-20T14:37:12;10.32;;;5.35;;
7773;SDS011;3931;42.260;23.116;2023-07-20T14:40:37;12.13;;;4.85;;
7773;SDS011;3931;42.260;23.116;2023-07-20T14:44:02;9.77;;;5.75;;
7773;SDS011;3931;42.260;23.116;2023-07-20T14:47:27;9.40;;;4.82;;
7773;SDS011;3931;42.260;23.116;2023-07-20T14:50:52;12.75;;;5.05;;
7773;SDS011;3931;42.260;23.116;2023-07-20T14:54:19;15.25;;;4.25;;
7773;SDS011;3931;42.260;23.116;2023-07-20T14:57:43;11.23;;;5.15;;
7773;SDS011;3931;42.260;23.116;2023-07-20T15:01:08;12.23;;;4.72;;
7773;SDS011;3931;42.260;23.116;2023-07-20T15:04:33;19.20;;;6.03;;
7773;SDS011;3931;42.260;23.116;2023-07-20T15:07:58;30.38;;;6.13;;
7773;SDS011;3931;42.260;23.116;2023-07-20T15:11:23;17.55;;;5.63;;
7773;SDS011;3931;42.260;23.116;2023-07-20T15:14:49;13.35;;;4.82;;
7773;SDS011;3931;42.260;23.116;2023-07-20T15:18:25;21.13;;;5.63;;
7773;SDS011;3931;42.260;23.116;2023-07-20T15:21:50;14.45;;;5.63;;
7773;SDS011;3931;42.260;23.116;2023-07-20T15:25:14;11.40;;;4.78;;
7773;SDS011;3931;42.260;23.116;2023-07-20T15:28:40;18.73;;;5.75;;
7773;SDS011;3931;42.260;23.116;2023-07-20T15:32:05;13.02;;;4.60;;
7773;SDS011;3931;42.260;23.116;2023-07-20T15:35:30;15.18;;;4.85;;
7773;SDS011;3931;42.260;23.116;2023-07-20T15:38:54;10.88;;;4.35;;
7773;SDS011;3931;42.260;23.116;2023-07-20T15:42:19;13.90;;;4.28;;
7773;SDS011;3931;42.260;23.116;2023-07-20T15:45:45;15.57;;;4.47;;
7773;SDS011;3931;42.260;23.116;2023-07-20T15:49:11;15.90;;;4.00;;
7773;SDS011;3931;42.260;23.116;2023-07-20T15:52:36;21.67;;;4.97;;
7773;SDS011;3931;42.260;23.116;2023-07-20T15:56:03;11.18;;;2.85;;
7773;SDS011;3931;42.260;23.116;2023-07-20T15:59:28;17.02;;;3.78;;
7773;SDS011;3931;42.260;23.116;2023-07-20T16:02:54;14.00;;;3.72;;
7773;SDS011;3931;42.260;23.116;2023-07-20T16:06:18;15.25;;;3.53;;
7773;SDS011;3931;42.260;23.116;2023-07-20T16:09:43;15.48;;;3.50;;
7773;SDS011;3931;42.260;23.116;2023-07-20T16:13:07;8.35;;;2.90;;
7773;SDS011;3931;42.260;23.116;2023-07-20T16:16:33;11.80;;;3.30;;
7773;SDS011;3931;42.260;23.116;2023-07-20T16:19:58;9.55;;;3.38;;
7773;SDS011;3931;42.260;23.116;2023-07-20T16:23:23;7.18;;;2.88;;
7773;SDS011;3931;42.260;23.116;2023-07-20T16:26:48;5.78;;;3.13;;
7773;SDS011;3931;42.260;23.116;2023-07-20T16:30:13;8.32;;;3.10;;
7773;SDS011;3931;42.260;23.116;2023-07-20T16:33:39;15.10;;;4.35;;
7773;SDS011;3931;42.260;23.116;2023-07-20T16:37:05;12.25;;;3.60;;
7773;SDS011;3931;42.260;23.116;2023-07-20T16:40:29;12.13;;;3.88;;
7773;SDS011;3931;42.260;23.116;2023-07-20T16:43:54;9.25;;;3.67;;
7773;SDS011;3931;42.260;23.116;2023-07-20T16:47:18;16.13;;;3.30;;
7773;SDS011;3931;42.260;23.116;2023-07-20T16:50:43;13.45;;;3.08;;
7773;SDS011;3931;42.260;23.116;2023-07-20T16:54:08;13.23;;;3.83;;
7773;SDS011;3931;42.260;23.116;2023-07-20T16:57:33;16.35;;;3.20;;
7773;SDS011;3931;42.260;23.116;2023-07-20T17:00:59;14.43;;;3.80;;
7773;SDS011;3931;42.260;23.116;2023-07-20T17:04:23;21.80;;;4.05;;
7773;SDS011;3931;42.260;23.116;2023-07-20T17:07:48;15.52;;;4.07;;
7773;SDS011;3931;42.260;23.116;2023-07-20T17:11:13;13.18;;;3.22;;
7773;SDS011;3931;42.260;23.116;2023-07-20T17:14:37;10.05;;;3.00;;
7773;SDS011;3931;42.260;23.116;2023-07-20T17:18:04;11.52;;;4.07;;
7773;SDS011;3931;42.260;23.116;2023-07-20T17:21:28;8.23;;;3.53;;
7773;SDS011;3931;42.260;23.116;2023-07-20T17:24:53;15.70;;;3.47;;
7773;SDS011;3931;42.260;23.116;2023-07-20T17:28:18;17.98;;;3.97;;
7773;SDS011;3931;42.260;23.116;2023-07-20T17:31:43;14.07;;;3.55;;
7773;SDS011;3931;42.260;23.116;2023-07-20T17:35:08;16.42;;;3.55;;
7773;SDS011;3931;42.260;23.116;2023-07-20T17:38:34;9.60;;;3.10;;
7773;SDS011;3931;42.260;23.116;2023-07-20T17:41:59;12.63;;;3.03;;
7773;SDS011;3931;42.260;23.116;2023-07-20T17:45:24;9.82;;;3.30;;
7773;SDS011;3931;42.260;23.116;2023-07-20T17:48:48;10.98;;;3.00;;
7773;SDS011;3931;42.260;23.116;2023-07-20T17:52:13;10.70;;;3.45;;
7773;SDS011;3931;42.260;23.116;2023-07-20T17:55:39;9.43;;;3.95;;
7773;SDS011;3931;42.260;23.116;2023-07-20T17:59:04;10.38;;;3.08;;
7773;SDS011;3931;42.260;23.116;2023-07-20T18:02:30;11.02;;;3.05;;
7773;SDS011;3931;42.260;23.116;2023-07-20T18:05:55;13.95;;;3.42;;
7773;SDS011;3931;42.260;23.116;2023-07-20T18:09:20;6.82;;;2.40;;
7773;SDS011;3931;42.260;23.116;2023-07-20T18:12:45;12.00;;;3.33;;
7773;SDS011;3931;42.260;23.116;2023-07-20T18:16:09;9.15;;;2.95;;
7773;SDS011;3931;42.260;23.116;2023-07-20T18:19:34;11.73;;;3.90;;
7773;SDS011;3931;42.260;23.116;2023-07-20T18:23:00;12.13;;;4.00;;
7773;SDS011;3931;42.260;23.116;2023-07-20T18:26:24;10.88;;;3.60;;
7773;SDS011;3931;42.260;23.116;2023-07-20T18:29:51;6.50;;;2.72;;
7773;SDS011;3931;42.260;23.116;2023-07-20T18:33:15;9.73;;;3.03;;
7773;SDS011;3931;42.260;23.116;2023-07-20T18:36:41;10.13;;;3.13;;
7773;SDS011;3931;42.260;23.116;2023-07-20T18:40:06;12.75;;;3.67;;
7773;SDS011;3931;42.260;23.116;2023-07-20T18:43:31;9.45;;;2.78;;
7773;SDS011;3931;42.260;23.116;2023-07-20T18:46:55;13.65;;;3.70;;
7773;SDS011;3931;42.260;23.116;2023-07-20T18:50:20;15.35;;;2.75;;
7773;SDS011;3931;42.260;23.116;2023-07-20T18:53:45;10.82;;;3.55;;
7773;SDS011;3931;42.260;23.116;2023-07-20T18:57:09;13.52;;;3.60;;
7773;SDS011;3931;42.260;23.116;2023-07-20T19:00:34;9.98;;;4.15;;
7773;SDS011;3931;42.260;23.116;2023-07-20T19:03:59;10.38;;;3.75;;
7773;SDS011;3931;42.260;23.116;2023-07-20T19:07:24;18.52;;;4.15;;
7773;SDS011;3931;42.260;23.116;2023-07-20T19:10:49;15.52;;;5.05;;
7773;SDS011;3931;42.260;23.116;2023-07-20T19:14:14;12.18;;;4.40;;
7773;SDS011;3931;42.260;23.116;2023-07-20T19:17:38;22.60;;;4.57;;
7773;SDS011;3931;42.260;23.116;2023-07-20T19:21:04;17.00;;;4.85;;
7773;SDS011;3931;42.260;23.116;2023-07-20T19:24:29;10.80;;;3.83;;
7773;SDS011;3931;42.260;23.116;2023-07-20T19:27:54;14.80;;;4.28;;
7773;SDS011;3931;42.260;23.116;2023-07-20T19:31:19;9.95;;;3.95;;
7773;SDS011;3931;42.260;23.116;2023-07-20T19:34:43;12.48;;;3.50;;
7773;SDS011;3931;42.260;23.116;2023-07-20T19:38:09;13.97;;;3.80;;
7773;SDS011;3931;42.260;23.116;2023-07-20T19:41:34;17.58;;;3.40;;
7773;SDS011;3931;42.260;23.116;2023-07-20T19:45:01;12.45;;;4.35;;
7773;SDS011;3931;42.260;23.116;2023-07-20T19:48:27;12.20;;;4.30;;
7773;SDS011;3931;42.260;23.116;2023-07-20T19:51:53;9.27;;;3.20;;
7773;SDS011;3931;42.260;23.116;2023-07-20T19:55:17;8.40;;;3.30;;
7773;SDS011;3931;42.260;23.116;2023-07-20T19:58:42;9.50;;;3.30;;
7773;SDS011;3931;42.260;23.116;2023-07-20T20:02:07;9.63;;;3.03;;
7773;SDS011;3931;42.260;23.116;2023-07-20T20:05:32;13.33;;;3.70;;
7773;SDS011;3931;42.260;23.116;2023-07-20T20:08:57;7.05;;;3.28;;
7773;SDS011;3931;42.260;23.116;2023-07-20T20:12:21;10.47;;;2.97;;
7773;SDS011;3931;42.260;23.116;2023-07-20T20:15:47;5.93;;;2.37;;
7773;SDS011;3931;42.260;23.116;2023-07-20T20:19:12;15.50;;;3.30;;
7773;SDS011;3931;42.260;23.116;2023-07-20T20:22:37;5.93;;;3.03;;
7773;SDS011;3931;42.260;23.116;2023-07-20T20:26:05;8.33;;;2.77;;
7773;SDS011;3931;42.260;23.116;2023-07-20T20:29:30;27.07;;;3.73;;
7773;SDS011;3931;42.260;23.116;2023-07-20T20:32:54;10.70;;;2.90;;
7773;SDS011;3931;42.260;23.116;2023-07-20T20:36:19;9.70;;;2.87;;
7773;SDS011;3931;42.260;23.116;2023-07-20T20:39:49;9.60;;;2.77;;
7773;SDS011;3931;42.260;23.116;2023-07-20T20:43:16;14.63;;;3.40;;
7773;SDS011;3931;42.260;23.116;2023-07-20T20:46:42;6.20;;;2.83;;